Time;durP1;ratioP1;P1;durP2;ratioP2;P2;SDS_P1;SDS_P2;PMS_P1;PMS_P2;Temp;Humidity;BMP_temperature;BMP_pressure;BME280_temperature;BME280_humidity;BME280_pressure;Samples;Min_cycle;Max_cycle;Signal;HPM_P1;HPM_P2
2023/09/27 00:00:51;;;;;;;33.60;15.45;;;;;;;;;;6306319;22;20091;-61
2023/09/27 00:03:17;;;;;;;45.05;15.73;;;;;;;;;;6278825;22;20011;-60
2023/09/27 00:05:45;;;;;;;38.38;16.15;;;;;;;;;;6305813;22;20421;-62
2023/09/27 00:08:12;;;;;;;56.53;17.58;;;;;;;;;;6306404;22;20054;-61
2023/09/27 00:10:40;;;;;;;49.25;17.30;;;;;;;;;;6279109;22;20385;-61
2023/09/27 00:13:06;;;;;;;43.75;16.40;;;;;;;;;;6305691;22;20416;-61
2023/09/27 00:15:33;;;;;;;35.88;15.05;;;;;;;;;;6306312;22;20019;-62
2023/09/27 00:18:00;;;;;;;42.30;15.50;;;;;;;;;;6278716;22;20019;-61
2023/09/27 00:20:27;;;;;;;43.30;17.95;;;;;;;;;;6253054;22;20050;-62
2023/09/27 00:22:55;;;;;;;41.65;16.35;;;;;;;;;;6306479;22;20020;-63
2023/09/27 00:25:22;;;;;;;33.75;15.32;;;;;;;;;;6306512;22;20072;-62
2023/09/27 00:27:49;;;;;;;38.92;16.50;;;;;;;;;;6278424;22;20018;-61
2023/09/27 00:30:16;;;;;;;43.30;16.00;;;;;;;;;;6278511;22;20327;-62
2023/09/27 00:32:45;;;;;;;40.53;15.75;;;;;;;;;;6278863;22;20022;-61
2023/09/27 00:35:19;;;;;;;54.28;15.65;;;;;;;;;;6306447;22;20117;-62
2023/09/27 00:37:46;;;;;;;41.83;16.23;;;;;;;;;;6279403;22;20015;-63
2023/09/27 00:40:15;;;;;;;51.17;16.50;;;;;;;;;;6305457;22;20015;-61
2023/09/27 00:46:02;;;;;;;47.00;16.33;;;;;;;;;;6304543;22;20022;-61
2023/09/27 00:48:29;;;;;;;63.40;17.42;;;;;;;;;;6305346;22;20069;-62
2023/09/27 00:50:56;;;;;;;49.95;17.65;;;;;;;;;;6278327;22;20015;-61
2023/09/27 00:53:23;;;;;;;46.00;16.13;;;;;;;;;;6277897;22;20637;-61
2023/09/27 00:55:51;;;;;;;53.67;15.65;;;;;;;;;;6278326;22;20344;-64
2023/09/27 00:58:19;;;;;;;37.65;15.85;;;;;;;;;;6305402;22;20015;-60
2023/09/27 01:00:49;;;;;;;46.72;15.77;;;;;;;;;;6278518;22;20072;-61
2023/09/27 01:03:16;;;;;;;52.42;16.85;;;;;;;;;;6305884;22;20019;-60
2023/09/27 01:05:44;;;;;;;40.20;15.65;;;;;;;;;;6278273;22;20018;-62
2023/09/27 01:08:12;;;;;;;78.45;18.05;;;;;;;;;;6278909;22;20038;-61
2023/09/27 01:10:38;;;;;;;51.05;16.48;;;;;;;;;;6305797;22;20015;-61
2023/09/27 01:13:05;;;;;;;58.28;17.83;;;;;;;;;;6305650;22;20011;-63
2023/09/27 01:15:32;;;;;;;48.97;17.55;;;;;;;;;;6303757;22;20015;-61
2023/09/27 01:17:59;;;;;;;51.20;16.63;;;;;;;;;;6304210;22;20015;-60
2023/09/27 01:20:29;;;;;;;51.63;16.08;;;;;;;;;;6307406;22;20011;-61
2023/09/27 01:22:58;;;;;;;40.58;15.40;;;;;;;;;;6336813;22;20075;-63
2023/09/27 01:25:35;;;;;;;54.85;15.68;;;;;;;;;;6336811;22;20098;-61
2023/09/27 01:28:04;;;;;;;52.10;16.30;;;;;;;;;;6336622;22;20015;-61
2023/09/27 01:30:33;;;;;;;71.35;16.55;;;;;;;;;;6336731;22;20429;-62
2023/09/27 01:33:09;;;;;;;44.78;15.13;;;;;;;;;;6309427;22;20101;-61
2023/09/27 01:35:35;;;;;;;34.72;13.73;;;;;;;;;;6336580;22;20044;-62
2023/09/27 01:38:03;;;;;;;44.08;16.88;;;;;;;;;;6308895;22;20071;-61
2023/09/27 01:40:30;;;;;;;51.03;13.95;;;;;;;;;;6336353;22;20061;-64
2023/09/27 01:43:00;;;;;;;34.05;12.98;;;;;;;;;;6336673;22;20015;-63
2023/09/27 01:45:31;;;;;;;40.75;13.85;;;;;;;;;;6337395;22;20519;-65
2023/09/27 01:47:59;;;;;;;40.65;13.25;;;;;;;;;;6338679;22;20014;-61
2023/09/27 01:50:26;;;;;;;52.40;16.42;;;;;;;;;;6310688;22;20030;-61
2023/09/27 01:52:54;;;;;;;45.67;15.35;;;;;;;;;;6310951;22;20019;-62
2023/09/27 01:55:21;;;;;;;39.42;13.38;;;;;;;;;;6310381;22;20047;-61
2023/09/27 01:57:48;;;;;;;61.90;17.00;;;;;;;;;;6337921;22;20029;-63
2023/09/27 02:03:19;;;;;;;45.50;15.32;;;;;;;;;;6259497;22;20030;-54
2023/09/27 02:05:46;;;;;;;54.47;16.10;;;;;;;;;;6275958;22;20007;-57
2023/09/27 02:08:13;;;;;;;84.25;18.58;;;;;;;;;;6276146;22;20012;-56
2023/09/27 02:10:40;;;;;;;46.33;17.30;;;;;;;;;;6249879;22;20035;-57
2023/09/27 02:13:06;;;;;;;46.70;16.30;;;;;;;;;;6248394;22;20026;-57
2023/09/27 02:15:33;;;;;;;43.55;15.95;;;;;;;;;;6249197;22;20441;-56
2023/09/27 02:18:00;;;;;;;48.38;16.25;;;;;;;;;;6248787;22;20418;-54
2023/09/27 02:20:26;;;;;;;54.88;18.67;;;;;;;;;;6275772;22;20023;-53
2023/09/27 02:22:54;;;;;;;45.65;18.30;;;;;;;;;;6276502;22;20430;-54
2023/09/27 02:25:20;;;;;;;51.30;17.52;;;;;;;;;;6248455;22;20023;-54
2023/09/27 02:27:47;;;;;;;58.65;18.73;;;;;;;;;;6275750;22;20026;-55
2023/09/27 02:30:14;;;;;;;35.45;17.77;;;;;;;;;;6248732;22;20457;-54
2023/09/27 02:32:43;;;;;;;58.20;18.65;;;;;;;;;;6275779;22;20050;-56
2023/09/27 02:35:11;;;;;;;76.18;18.52;;;;;;;;;;6248487;22;20016;-54
2023/09/27 02:37:38;;;;;;;40.28;16.40;;;;;;;;;;6249381;22;20102;-57
2023/09/27 02:40:11;;;;;;;54.00;20.35;;;;;;;;;;6248567;22;20106;-55
2023/09/27 02:42:40;;;;;;;41.30;16.52;;;;;;;;;;6248738;22;20027;-54
2023/09/27 02:45:07;;;;;;;43.60;16.23;;;;;;;;;;6249011;22;20093;-55
2023/09/27 02:47:34;;;;;;;40.70;16.38;;;;;;;;;;6276134;22;20027;-56
2023/09/27 02:50:02;;;;;;;50.15;16.75;;;;;;;;;;6249063;22;20070;-60
2023/09/27 02:52:29;;;;;;;51.17;17.33;;;;;;;;;;6249172;22;20025;-57
2023/09/27 02:54:56;;;;;;;38.75;16.02;;;;;;;;;;6248446;22;20104;-57
2023/09/27 02:57:23;;;;;;;50.00;16.55;;;;;;;;;;6274370;22;20016;-58
2023/09/27 02:59:50;;;;;;;51.40;18.02;;;;;;;;;;6248760;22;20028;-56
2023/09/27 03:02:17;;;;;;;87.32;19.65;;;;;;;;;;6258843;22;20027;-55
2023/09/27 03:04:43;;;;;;;53.85;18.25;;;;;;;;;;6219282;23;20039;-54
2023/09/27 03:07:11;;;;;;;63.45;18.58;;;;;;;;;;6218249;23;20051;-56
2023/09/27 03:09:37;;;;;;;53.00;17.50;;;;;;;;;;6217874;23;20066;-54
2023/09/27 03:12:05;;;;;;;63.85;18.98;;;;;;;;;;6218039;23;20527;-56
2023/09/27 03:14:32;;;;;;;52.33;17.55;;;;;;;;;;6218214;23;20041;-52
2023/09/27 03:16:59;;;;;;;41.63;16.58;;;;;;;;;;6218366;23;20016;-59
2023/09/27 03:19:26;;;;;;;52.45;17.40;;;;;;;;;;6193410;23;20089;-54
2023/09/27 03:21:52;;;;;;;44.78;16.88;;;;;;;;;;6218239;23;20054;-58
2023/09/27 03:24:19;;;;;;;65.43;18.25;;;;;;;;;;6245355;23;20027;-58
2023/09/27 03:26:47;;;;;;;44.80;16.40;;;;;;;;;;6245080;23;20054;-56
2023/09/27 03:29:14;;;;;;;84.28;18.77;;;;;;;;;;6245067;23;20020;-56
2023/09/27 03:31:41;;;;;;;77.85;17.60;;;;;;;;;;6218513;23;20035;-56
2023/09/27 03:34:07;;;;;;;46.92;16.63;;;;;;;;;;6217920;23;20397;-58
2023/09/27 03:36:34;;;;;;;53.90;18.23;;;;;;;;;;6244882;23;20035;-53
2023/09/27 03:39:01;;;;;;;40.63;17.20;;;;;;;;;;6217755;23;20016;-56
2023/09/27 03:41:29;;;;;;;50.05;18.08;;;;;;;;;;6217598;23;20087;-57
2023/09/27 03:43:55;;;;;;;50.05;17.35;;;;;;;;;;6245688;23;20012;-54
2023/09/27 03:46:22;;;;;;;44.40;16.35;;;;;;;;;;6218010;23;20016;-54
2023/09/27 03:48:50;;;;;;;52.58;16.80;;;;;;;;;;6217745;23;20020;-54
2023/09/27 03:51:23;;;;;;;77.72;17.98;;;;;;;;;;6217579;23;20047;-54
2023/09/27 03:53:50;;;;;;;48.30;17.35;;;;;;;;;;6217862;23;20035;-59
2023/09/27 03:56:17;;;;;;;99.97;19.17;;;;;;;;;;6217642;23;20027;-55
2023/09/27 03:58:44;;;;;;;37.47;16.05;;;;;;;;;;6244857;23;20024;-57
2023/09/27 04:01:11;;;;;;;53.15;17.67;;;;;;;;;;6217417;22;20023;-55
2023/09/27 04:03:38;;;;;;;42.40;16.33;;;;;;;;;;6217617;23;20028;-57
2023/09/27 04:06:04;;;;;;;39.13;15.40;;;;;;;;;;6217748;23;20020;-57
2023/09/27 04:08:32;;;;;;;39.20;14.27;;;;;;;;;;6217427;23;20035;-59
2023/09/27 04:11:01;;;;;;;49.13;15.48;;;;;;;;;;6218342;23;20008;-57
2023/09/27 04:13:28;;;;;;;42.08;18.23;;;;;;;;;;6244580;23;20143;-56
2023/09/27 04:15:54;;;;;;;67.70;22.45;;;;;;;;;;6244574;23;20016;-56
2023/09/27 04:18:21;;;;;;;43.92;16.77;;;;;;;;;;6218035;23;20070;-58
2023/09/27 04:20:48;;;;;;;56.13;15.82;;;;;;;;;;6244312;23;20016;-56
2023/09/27 04:23:14;;;;;;;99.53;18.70;;;;;;;;;;6243786;23;20012;-62
2023/09/27 04:25:41;;;;;;;36.58;15.20;;;;;;;;;;6244891;23;20426;-59
2023/09/27 04:28:09;;;;;;;89.95;18.48;;;;;;;;;;6244097;23;20078;-54
2023/09/27 04:30:37;;;;;;;129.57;22.30;;;;;;;;;;6244246;23;20460;-51
2023/09/27 04:33:03;;;;;;;106.53;21.20;;;;;;;;;;6244330;23;20383;-54
2023/09/27 04:35:30;;;;;;;96.65;17.92;;;;;;;;;;6244726;23;20016;-54
2023/09/27 04:37:57;;;;;;;78.50;18.77;;;;;;;;;;6218032;23;20031;-58
2023/09/27 04:40:24;;;;;;;44.92;15.43;;;;;;;;;;6244083;23;20016;-55
2023/09/27 04:42:50;;;;;;;56.58;16.17;;;;;;;;;;6244315;23;20385;-57
2023/09/27 04:45:17;;;;;;;59.83;16.38;;;;;;;;;;6243924;23;20016;-54
2023/09/27 04:47:44;;;;;;;96.15;18.48;;;;;;;;;;6216509;23;20144;-55
2023/09/27 04:50:12;;;;;;;85.50;17.35;;;;;;;;;;6243634;23;20016;-57
2023/09/27 04:52:39;;;;;;;63.53;16.77;;;;;;;;;;6244412;23;20020;-56
2023/09/27 04:55:08;;;;;;;48.92;16.83;;;;;;;;;;6244115;23;20087;-57
2023/09/27 04:57:35;;;;;;;51.90;17.70;;;;;;;;;;6191984;23;20020;-54
2023/09/27 05:00:03;;;;;;;52.55;17.05;;;;;;;;;;6217008;23;20070;-51
2023/09/27 05:02:30;;;;;;;50.28;16.00;;;;;;;;;;6243847;22;20058;-54
2023/09/27 05:04:57;;;;;;;118.72;20.77;;;;;;;;;;6217997;23;20315;-54
2023/09/27 05:07:24;;;;;;;68.80;19.83;;;;;;;;;;6243710;23;20576;-55
2023/09/27 05:09:52;;;;;;;68.53;17.70;;;;;;;;;;6244066;23;20480;-54
2023/09/27 05:12:18;;;;;;;66.28;18.30;;;;;;;;;;6216989;23;20016;-53
2023/09/27 05:14:45;;;;;;;90.10;20.00;;;;;;;;;;6243745;23;20442;-60
2023/09/27 05:17:12;;;;;;;128.23;22.90;;;;;;;;;;6243929;23;20043;-54
2023/09/27 05:19:38;;;;;;;70.43;16.95;;;;;;;;;;6217984;23;20477;-57
2023/09/27 05:22:05;;;;;;;77.00;19.50;;;;;;;;;;6245299;23;20067;-53
2023/09/27 05:24:38;;;;;;;64.53;19.02;;;;;;;;;;6245657;23;20454;-57
2023/09/27 05:27:06;;;;;;;153.43;25.92;;;;;;;;;;6218672;23;20016;-58
2023/09/27 05:29:33;;;;;;;114.07;20.40;;;;;;;;;;6245527;23;20012;-53
2023/09/27 05:32:00;;;;;;;68.72;18.60;;;;;;;;;;6246325;23;20008;-54
2023/09/27 05:34:29;;;;;;;88.80;20.55;;;;;;;;;;6246113;23;20404;-56
2023/09/27 05:36:56;;;;;;;75.90;18.80;;;;;;;;;;6194007;23;20020;-55
2023/09/27 05:39:22;;;;;;;71.30;17.23;;;;;;;;;;6245606;23;20012;-56
2023/09/27 05:41:49;;;;;;;82.13;20.13;;;;;;;;;;6245513;23;20469;-55
2023/09/27 05:44:16;;;;;;;95.43;18.30;;;;;;;;;;6219096;23;20028;-58
2023/09/27 05:46:44;;;;;;;40.63;15.50;;;;;;;;;;6246367;23;20062;-53
2023/09/27 05:49:11;;;;;;;57.42;17.08;;;;;;;;;;6245661;23;20016;-54
2023/09/27 05:51:38;;;;;;;40.13;15.75;;;;;;;;;;6246037;23;20079;-53
2023/09/27 05:54:05;;;;;;;80.10;16.63;;;;;;;;;;6246005;23;20008;-54
2023/09/27 05:56:37;;;;;;;76.80;17.00;;;;;;;;;;6245812;23;20020;-57
2023/09/27 05:59:08;;;;;;;58.10;16.20;;;;;;;;;;6246239;23;20042;-57
2023/09/27 06:01:37;;;;;;;45.40;14.88;;;;;;;;;;6227243;22;20019;-54
2023/09/27 06:04:04;;;;;;;115.38;20.08;;;;;;;;;;6276133;22;20015;-53
2023/09/27 06:06:31;;;;;;;58.75;15.88;;;;;;;;;;6275655;22;20469;-51
2023/09/27 06:08:58;;;;;;;41.83;15.02;;;;;;;;;;6249594;22;20011;-53
2023/09/27 06:11:25;;;;;;;48.03;14.90;;;;;;;;;;6276324;22;20062;-52
2023/09/27 06:13:52;;;;;;;42.42;14.57;;;;;;;;;;6276314;22;20016;-55
2023/09/27 06:16:19;;;;;;;43.13;14.57;;;;;;;;;;6249261;22;20016;-58
2023/09/27 06:18:46;;;;;;;55.72;14.27;;;;;;;;;;6275899;22;20027;-54
2023/09/27 06:21:13;;;;;;;41.88;13.50;;;;;;;;;;6276115;22;20011;-58
2023/09/27 06:23:41;;;;;;;111.50;16.10;;;;;;;;;;6276180;22;20012;-56
2023/09/27 06:26:09;;;;;;;75.65;14.07;;;;;;;;;;6249290;22;20077;-55
2023/09/27 06:28:37;;;;;;;41.88;10.45;;;;;;;;;;6276606;22;20018;-54
2023/09/27 06:31:07;;;;;;;26.33;10.20;;;;;;;;;;6276074;22;20081;-57
2023/09/27 06:33:34;;;;;;;31.35;10.20;;;;;;;;;;6276302;22;20089;-55
2023/09/27 06:36:01;;;;;;;35.83;10.20;;;;;;;;;;6249198;22;20469;-56
2023/09/27 06:38:27;;;;;;;43.47;10.48;;;;;;;;;;6276159;22;20031;-54
2023/09/27 06:40:54;;;;;;;41.10;9.32;;;;;;;;;;6276525;22;20041;-53
2023/09/27 06:43:21;;;;;;;46.75;9.77;;;;;;;;;;6275623;22;20015;-55
2023/09/27 06:45:49;;;;;;;36.42;10.15;;;;;;;;;;6248987;22;20016;-54
2023/09/27 06:48:18;;;;;;;42.25;10.00;;;;;;;;;;6248986;22;20074;-56
2023/09/27 06:50:46;;;;;;;34.00;10.05;;;;;;;;;;6276409;22;20043;-54
2023/09/27 06:53:13;;;;;;;131.52;14.23;;;;;;;;;;6248951;22;20020;-54
2023/09/27 06:55:53;;;;;;;29.80;9.32;;;;;;;;;;6276367;22;20022;-57
2023/09/27 06:58:23;;;;;;;24.75;8.82;;;;;;;;;;6275168;22;20038;-56
2023/09/27 07:00:51;;;;;;;41.15;10.20;;;;;;;;;;6248534;22;20331;-57
2023/09/27 07:03:24;;;;;;;31.73;10.05;;;;;;;;;;6223520;22;20073;-54
2023/09/27 07:05:51;;;;;;;30.15;9.27;;;;;;;;;;6276087;22;20016;-58
2023/09/27 07:08:18;;;;;;;82.15;12.77;;;;;;;;;;6275933;22;20026;-53
2023/09/27 07:10:45;;;;;;;28.02;9.88;;;;;;;;;;6249232;22;20024;-57
2023/09/27 07:13:12;;;;;;;30.02;8.35;;;;;;;;;;6248621;22;20024;-55
2023/09/27 07:15:38;;;;;;;37.58;10.10;;;;;;;;;;6248660;22;20066;-53
2023/09/27 07:18:05;;;;;;;26.55;8.60;;;;;;;;;;6275843;22;20011;-60
2023/09/27 07:20:34;;;;;;;39.13;10.43;;;;;;;;;;6248726;22;20020;-54
2023/09/27 07:23:07;;;;;;;23.67;9.77;;;;;;;;;;6276289;22;20016;-54
2023/09/27 07:25:37;;;;;;;29.63;9.20;;;;;;;;;;6275848;22;20011;-53
2023/09/27 07:28:05;;;;;;;41.90;10.45;;;;;;;;;;6275711;22;20015;-55
2023/09/27 07:30:35;;;;;;;35.80;11.18;;;;;;;;;;6247966;22;20023;-58
2023/09/27 07:33:11;;;;;;;36.53;10.60;;;;;;;;;;6248253;22;20012;-59
2023/09/27 07:35:42;;;;;;;38.17;10.55;;;;;;;;;;6275987;22;20087;-56
2023/09/27 07:38:10;;;;;;;86.07;12.93;;;;;;;;;;6248563;22;20015;-58
2023/09/27 07:40:38;;;;;;;39.70;10.10;;;;;;;;;;6247594;22;20336;-58
2023/09/27 07:43:05;;;;;;;40.38;11.00;;;;;;;;;;6247645;22;20020;-60
2023/09/27 07:45:35;;;;;;;34.63;10.68;;;;;;;;;;6275451;22;20018;-59
2023/09/27 07:48:02;;;;;;;31.98;10.10;;;;;;;;;;6247938;22;20023;-61
2023/09/27 07:50:31;;;;;;;42.42;10.90;;;;;;;;;;6275248;22;20015;-61
2023/09/27 07:53:00;;;;;;;39.22;10.50;;;;;;;;;;6276079;22;20015;-58
2023/09/27 07:55:26;;;;;;;253.15;28.02;;;;;;;;;;6275329;22;20319;-58
2023/09/27 07:57:54;;;;;;;48.42;10.40;;;;;;;;;;6248271;22;20456;-58
2023/09/27 08:00:27;;;;;;;35.58;9.93;;;;;;;;;;6222783;22;20015;-59
2023/09/27 08:02:55;;;;;;;39.47;10.30;;;;;;;;;;6248164;22;20041;-58
2023/09/27 08:05:22;;;;;;;45.40;10.45;;;;;;;;;;6275384;22;20506;-64
2023/09/27 08:07:50;;;;;;;29.92;9.85;;;;;;;;;;6275466;22;20012;-58
2023/09/27 08:10:18;;;;;;;40.20;12.02;;;;;;;;;;6223288;22;20460;-58
2023/09/27 08:12:47;;;;;;;39.30;9.57;;;;;;;;;;6274647;22;20015;-58
2023/09/27 08:15:14;;;;;;;49.47;10.27;;;;;;;;;;6275549;22;20501;-58
2023/09/27 08:17:42;;;;;;;30.48;9.38;;;;;;;;;;6248218;22;20023;-58
2023/09/27 08:20:11;;;;;;;56.40;10.90;;;;;;;;;;6274936;22;20560;-58
2023/09/27 08:22:41;;;;;;;41.35;11.48;;;;;;;;;;6275512;22;20038;-58
2023/09/27 08:25:14;;;;;;;162.60;21.20;;;;;;;;;;6275068;22;20024;-58
2023/09/27 08:27:41;;;;;;;41.25;9.45;;;;;;;;;;6248301;22;20023;-58
2023/09/27 08:30:09;;;;;;;28.23;9.00;;;;;;;;;;6275124;22;20019;-60
2023/09/27 08:32:35;;;;;;;43.28;10.20;;;;;;;;;;6275275;22;20433;-58
2023/09/27 08:35:02;;;;;;;37.85;9.35;;;;;;;;;;6275603;22;20429;-59
2023/09/27 08:37:31;;;;;;;30.60;9.05;;;;;;;;;;6275360;22;20020;-59
2023/09/27 08:39:57;;;;;;;30.95;8.95;;;;;;;;;;6274849;22;20023;-59
2023/09/27 08:42:25;;;;;;;48.53;10.73;;;;;;;;;;6275206;22;20042;-58
2023/09/27 08:44:55;;;;;;;49.47;10.35;;;;;;;;;;6223086;22;20337;-62
2023/09/27 08:47:22;;;;;;;70.55;12.10;;;;;;;;;;6274594;22;20020;-59
2023/09/27 08:49:49;;;;;;;26.10;9.63;;;;;;;;;;6248581;22;20368;-59
2023/09/27 08:52:16;;;;;;;1170.50;112.47;;;;;;;;;;6247806;22;20047;-58
2023/09/27 08:54:43;;;;;;;113.22;15.18;;;;;;;;;;6273805;22;20085;-59
2023/09/27 08:57:10;;;;;;;119.82;15.68;;;;;;;;;;6273662;22;20551;-58
2023/09/27 08:59:38;;;;;;;37.75;10.23;;;;;;;;;;6274926;22;20042;-58
2023/09/27 09:02:05;;;;;;;26.60;8.93;;;;;;;;;;6248505;22;20088;-61
2023/09/27 09:04:35;;;;;;;52.63;10.13;;;;;;;;;;6248157;22;20015;-62
2023/09/27 09:07:02;;;;;;;40.70;10.13;;;;;;;;;;6253114;22;20016;-62
2023/09/27 09:09:30;;;;;;;29.65;9.02;;;;;;;;;;6252220;22;20011;-59
2023/09/27 09:11:59;;;;;;;45.70;10.00;;;;;;;;;;6275862;22;20019;-58
2023/09/27 09:14:43;;;;;;;48.38;10.57;;;;;;;;;;6224880;22;20510;-61
2023/09/27 09:17:17;;;;;;;76.65;12.52;;;;;;;;;;6253044;22;20451;-67
2023/09/27 09:20:02;;;;;;;46.60;10.35;;;;;;;;;;6228539;22;20383;-56
2023/09/27 09:22:30;;;;;;;171.82;18.92;;;;;;;;;;6276649;22;20015;-55
2023/09/27 09:24:59;;;;;;;42.30;9.45;;;;;;;;;;6252050;22;20012;-56
2023/09/27 09:27:26;;;;;;;45.88;9.63;;;;;;;;;;6253117;22;20338;-55
2023/09/27 09:29:53;;;;;;;41.70;10.45;;;;;;;;;;6253414;22;20022;-56
2023/09/27 09:32:21;;;;;;;52.40;10.50;;;;;;;;;;6277576;22;20051;-57
2023/09/27 09:34:49;;;;;;;35.53;9.10;;;;;;;;;;6280070;22;20019;-56
2023/09/27 09:37:20;;;;;;;37.58;9.93;;;;;;;;;;6280008;22;20018;-55
2023/09/27 09:39:48;;;;;;;43.05;9.30;;;;;;;;;;6279358;22;20016;-57
2023/09/27 09:42:29;;;;;;;37.40;9.27;;;;;;;;;;6277866;22;20015;-58
2023/09/27 09:44:59;;;;;;;78.18;10.85;;;;;;;;;;6252552;22;20031;-56
2023/09/27 09:47:28;;;;;;;61.90;12.43;;;;;;;;;;6252407;22;20055;-55
2023/09/27 09:49:55;;;;;;;33.00;9.13;;;;;;;;;;6278597;22;20434;-56
2023/09/27 09:52:25;;;;;;;52.28;9.77;;;;;;;;;;6276399;22;20562;-57
2023/09/27 09:54:55;;;;;;;34.67;9.70;;;;;;;;;;6278187;22;20012;-54
2023/09/27 09:57:38;;;;;;;39.83;9.50;;;;;;;;;;6255955;22;20027;-53
2023/09/27 10:00:25;;;;;;;37.42;8.95;;;;;;;;;;6276592;22;20015;-55
2023/09/27 10:03:03;;;;;;;42.10;9.23;;;;;;;;;;6277267;22;20028;-59
2023/09/27 10:05:36;;;;;;;43.88;8.82;;;;;;;;;;6250643;22;20504;-54
2023/09/27 10:08:04;;;;;;;32.70;8.30;;;;;;;;;;6280167;22;20007;-53
2023/09/27 10:10:32;;;;;;;85.47;12.02;;;;;;;;;;6251429;22;20445;-60
2023/09/27 10:13:00;;;;;;;31.45;8.00;;;;;;;;;;6251704;22;20456;-57
2023/09/27 10:15:27;;;;;;;49.50;9.70;;;;;;;;;;6274899;22;20038;-59
2023/09/27 10:18:14;;;;;;;61.85;10.30;;;;;;;;;;6276342;22;20016;-56
2023/09/27 10:21:00;;;;;;;60.63;9.18;;;;;;;;;;6275410;22;20012;-56
2023/09/27 10:23:32;;;;;;;94.43;13.48;;;;;;;;;;6224198;22;20023;-58
2023/09/27 10:26:18;;;;;;;49.42;9.32;;;;;;;;;;6248026;22;20028;-57
2023/09/27 10:29:00;;;;;;;33.88;8.65;;;;;;;;;;6249481;22;20023;-56
2023/09/27 10:31:27;;;;;;;30.83;8.13;;;;;;;;;;6276285;22;20491;-54
2023/09/27 10:33:55;;;;;;;33.45;9.05;;;;;;;;;;6248740;22;20011;-53
2023/09/27 10:36:21;;;;;;;39.65;8.35;;;;;;;;;;6248856;22;20038;-56
2023/09/27 10:38:51;;;;;;;41.50;8.20;;;;;;;;;;6248775;22;20047;-55
2023/09/27 10:41:38;;;;;;;90.47;11.10;;;;;;;;;;6248505;22;20024;-56
2023/09/27 10:44:05;;;;;;;30.08;8.00;;;;;;;;;;6276176;22;20397;-57
2023/09/27 10:46:41;;;;;;;38.67;8.55;;;;;;;;;;6276075;22;20034;-54
2023/09/27 10:49:09;;;;;;;29.85;8.25;;;;;;;;;;6248763;22;20027;-56
2023/09/27 10:51:35;;;;;;;26.83;7.43;;;;;;;;;;6223940;22;20098;-57
2023/09/27 10:54:06;;;;;;;32.90;8.27;;;;;;;;;;6275995;22;20024;-53
2023/09/27 10:56:32;;;;;;;49.95;9.93;;;;;;;;;;6248338;22;20027;-57
2023/09/27 10:58:59;;;;;;;45.10;8.25;;;;;;;;;;6276077;22;20012;-58
2023/09/27 11:01:25;;;;;;;26.23;7.38;;;;;;;;;;6248481;22;20016;-57
2023/09/27 11:04:03;;;;;;;98.22;10.70;;;;;;;;;;6275959;22;20082;-51
2023/09/27 11:06:31;;;;;;;39.17;8.48;;;;;;;;;;6276239;22;20045;-56
2023/09/27 11:09:05;;;;;;;78.30;10.73;;;;;;;;;;6248562;22;20020;-56
2023/09/27 11:11:31;;;;;;;39.47;8.27;;;;;;;;;;6249036;22;20071;-57
2023/09/27 11:13:58;;;;;;;23.67;7.45;;;;;;;;;;6275846;22;20392;-57
2023/09/27 11:16:25;;;;;;;41.80;8.00;;;;;;;;;;6275390;22;20026;-59
2023/09/27 11:18:52;;;;;;;42.63;8.85;;;;;;;;;;6275066;22;20035;-58
2023/09/27 11:21:19;;;;;;;264.17;25.92;;;;;;;;;;6275814;22;20495;-56
2023/09/27 11:23:59;;;;;;;52.90;8.85;;;;;;;;;;6275103;22;20093;-59
2023/09/27 11:26:29;;;;;;;74.05;10.98;;;;;;;;;;6275294;22;20019;-59
2023/09/27 11:29:03;;;;;;;47.25;8.73;;;;;;;;;;6275683;22;20099;-54
2023/09/27 11:31:33;;;;;;;72.18;9.23;;;;;;;;;;6275719;22;20079;-55
2023/09/27 11:34:17;;;;;;;19.80;6.68;;;;;;;;;;6275732;22;20024;-57
2023/09/27 11:36:44;;;;;;;38.42;7.55;;;;;;;;;;6248622;22;20333;-58
2023/09/27 11:39:13;;;;;;;34.67;7.18;;;;;;;;;;6248633;22;20061;-57
2023/09/27 11:41:40;;;;;;;47.22;8.00;;;;;;;;;;6274892;22;20012;-56
2023/09/27 11:44:20;;;;;;;31.33;7.32;;;;;;;;;;6248637;22;20073;-62
2023/09/27 11:46:51;;;;;;;29.52;7.05;;;;;;;;;;6275628;22;20085;-56
2023/09/27 11:49:18;;;;;;;59.30;8.30;;;;;;;;;;6222931;22;20103;-56
2023/09/27 11:51:44;;;;;;;56.97;7.93;;;;;;;;;;6275194;22;20098;-59
2023/09/27 11:54:12;;;;;;;37.70;8.15;;;;;;;;;;6273155;22;20030;-59
2023/09/27 11:56:40;;;;;;;58.00;8.65;;;;;;;;;;6274792;22;20019;-60
2023/09/27 11:59:07;;;;;;;59.15;8.35;;;;;;;;;;6247293;22;20098;-64
2023/09/27 12:01:35;;;;;;;69.65;9.18;;;;;;;;;;6247314;22;20016;-57
2023/09/27 12:04:01;;;;;;;51.30;7.93;;;;;;;;;;6274745;22;20020;-57
2023/09/27 12:06:32;;;;;;;62.40;8.57;;;;;;;;;;6247240;22;20047;-61
2023/09/27 12:08:59;;;;;;;89.68;11.68;;;;;;;;;;6247668;22;20022;-60
2023/09/27 12:11:27;;;;;;;45.42;7.30;;;;;;;;;;6274459;22;20023;-59
2023/09/27 12:13:55;;;;;;;72.78;9.73;;;;;;;;;;6275990;22;20011;-58
2023/09/27 12:16:21;;;;;;;42.08;7.57;;;;;;;;;;6275175;22;20022;-58
2023/09/27 12:18:48;;;;;;;137.57;13.52;;;;;;;;;;6274976;22;20452;-58
2023/09/27 12:21:15;;;;;;;46.58;8.57;;;;;;;;;;6275178;22;20011;-58
2023/09/27 12:23:44;;;;;;;47.03;8.15;;;;;;;;;;6274933;22;20473;-58
2023/09/27 12:26:12;;;;;;;40.80;7.30;;;;;;;;;;6248366;22;20019;-58
2023/09/27 12:28:39;;;;;;;36.58;6.75;;;;;;;;;;6248478;22;20099;-58
2023/09/27 12:31:06;;;;;;;34.28;7.25;;;;;;;;;;6274771;22;20026;-57
2023/09/27 12:33:33;;;;;;;30.17;6.75;;;;;;;;;;6274839;22;20019;-59
2023/09/27 12:36:00;;;;;;;33.78;6.75;;;;;;;;;;6248013;22;20110;-58
2023/09/27 12:38:27;;;;;;;116.07;12.65;;;;;;;;;;6247413;22;20111;-58
2023/09/27 12:40:53;;;;;;;63.83;8.75;;;;;;;;;;6248376;22;20093;-60
2023/09/27 12:43:20;;;;;;;16.23;6.20;;;;;;;;;;6274709;22;20457;-58
2023/09/27 12:45:47;;;;;;;59.30;8.80;;;;;;;;;;6247723;22;20456;-59
2023/09/27 12:48:14;;;;;;;34.85;7.05;;;;;;;;;;6247696;22;20472;-59
2023/09/27 12:50:41;;;;;;;23.92;6.00;;;;;;;;;;6247987;22;20111;-59
2023/09/27 12:53:08;;;;;;;60.50;8.35;;;;;;;;;;6275320;22;20015;-64
2023/09/27 12:55:35;;;;;;;31.52;6.68;;;;;;;;;;6248276;22;20012;-58
2023/09/27 12:58:03;;;;;;;24.95;6.70;;;;;;;;;;6274617;22;20026;-59
2023/09/27 13:00:29;;;;;;;41.45;7.38;;;;;;;;;;6247895;22;20106;-58
2023/09/27 13:02:57;;;;;;;33.45;6.82;;;;;;;;;;6247408;22;20441;-59
2023/09/27 13:05:24;;;;;;;50.35;8.35;;;;;;;;;;6247072;22;20012;-59
2023/09/27 13:07:51;;;;;;;25.55;6.72;;;;;;;;;;6275383;22;20437;-58
2023/09/27 13:10:18;;;;;;;52.53;7.97;;;;;;;;;;6274627;22;20747;-59
2023/09/27 13:12:45;;;;;;;38.42;7.22;;;;;;;;;;6274644;22;20433;-58
2023/09/27 13:15:11;;;;;;;77.18;9.48;;;;;;;;;;6274563;22;20018;-60
2023/09/27 13:17:38;;;;;;;49.55;7.60;;;;;;;;;;6275263;22;20031;-58
2023/09/27 13:20:06;;;;;;;30.30;6.78;;;;;;;;;;6275154;22;20043;-58
2023/09/27 13:22:33;;;;;;;290.23;29.60;;;;;;;;;;6274898;22;20016;-60
2023/09/27 13:25:00;;;;;;;32.05;7.40;;;;;;;;;;6274747;22;20020;-59
2023/09/27 13:27:26;;;;;;;58.13;8.23;;;;;;;;;;6274447;22;20012;-57
2023/09/27 13:29:53;;;;;;;18.83;6.18;;;;;;;;;;6274808;22;20023;-58
2023/09/27 13:32:20;;;;;;;85.03;10.18;;;;;;;;;;6274752;22;20022;-59
2023/09/27 13:34:46;;;;;;;33.95;6.72;;;;;;;;;;6222917;22;20020;-58
2023/09/27 13:37:13;;;;;;;29.63;6.43;;;;;;;;;;6274336;22;20090;-58
2023/09/27 13:39:40;;;;;;;51.00;7.70;;;;;;;;;;6274861;22;20020;-58
2023/09/27 13:42:06;;;;;;;158.88;15.90;;;;;;;;;;6276508;22;20019;-58
2023/09/27 13:44:33;;;;;;;80.22;10.93;;;;;;;;;;6249202;22;20442;-59
2023/09/27 13:47:02;;;;;;;133.00;12.32;;;;;;;;;;6277021;22;20016;-60
2023/09/27 13:49:29;;;;;;;50.75;7.35;;;;;;;;;;6249195;22;20434;-58
2023/09/27 13:51:56;;;;;;;27.25;6.35;;;;;;;;;;6276269;22;20031;-59
2023/09/27 13:54:23;;;;;;;71.78;8.32;;;;;;;;;;6249286;22;20026;-59
2023/09/27 13:56:49;;;;;;;34.75;6.80;;;;;;;;;;6276405;22;20012;-59
2023/09/27 13:59:16;;;;;;;73.90;10.90;;;;;;;;;;6276648;22;20016;-58
2023/09/27 14:01:43;;;;;;;41.25;6.85;;;;;;;;;;6266823;22;20012;-58
2023/09/27 14:04:10;;;;;;;45.30;8.88;;;;;;;;;;6194072;23;20019;-58
2023/09/27 14:06:36;;;;;;;27.15;5.90;;;;;;;;;;6245565;23;20013;-58
2023/09/27 14:09:03;;;;;;;69.53;7.30;;;;;;;;;;6245727;23;20020;-58
2023/09/27 14:11:30;;;;;;;332.20;35.30;;;;;;;;;;6245195;23;20012;-60
2023/09/27 14:13:56;;;;;;;52.85;7.78;;;;;;;;;;6218595;23;20020;-58
2023/09/27 14:16:23;;;;;;;34.80;6.80;;;;;;;;;;6218098;23;20016;-58
2023/09/27 14:18:50;;;;;;;191.13;14.45;;;;;;;;;;6244530;23;20020;-58
2023/09/27 14:21:17;;;;;;;40.28;6.43;;;;;;;;;;6245190;23;20012;-58
2023/09/27 14:23:44;;;;;;;45.15;7.15;;;;;;;;;;6245277;23;20026;-58
2023/09/27 14:26:11;;;;;;;23.95;5.97;;;;;;;;;;6244944;23;20016;-59
2023/09/27 14:28:39;;;;;;;97.30;11.02;;;;;;;;;;6217935;23;20462;-58
2023/09/27 14:31:08;;;;;;;40.28;7.65;;;;;;;;;;6217764;23;20024;-58
2023/09/27 14:33:34;;;;;;;27.88;6.15;;;;;;;;;;6245388;23;20222;-59